Skip Navigation Links
NOAA logo - Click to go to the NOAA homepage
NOAA's National Weather Service
Alaska Aviation Weather Unit
  NWS logo - Click to go to the NWS homepage
Left Navbar Graphic     02 AKDT = 10 GMT

   
NOAA is celebrating 200 years of science, service, and stewardship. Visit the NOAA 200th celebration Web site to learn more.
USA.gov is the U.S. Government's official Web portal to all Federal, state and local government Web resources and services.
Facebook
NWS on Facebook

AAWU Home :: Display TAF Add Bookmark
TAF PAPG 270602Z 2706/2806 10004KT P6SM VCSH FEW035 OVC060
     FM270800 11004KT P6SM -RASN SCT020 OVC040 WS020/14025KT
     FM271800 11010KT 6SM -RA BR OVC020 WS020/14030KT
     FM272200 12008KT 4SM -SHRA BR OVC015 WS020/14025KT
     FM280200 VRB04KT P6SM -SHRA OVC025
      AMD NOT SKED=
METAR PAPG 270454Z 00000KT 10SM FEW040 SCT060 01/00 A2957=

METAR PAPG 270554Z 00000KT 10SM SCT060 01/M01 A2957=


NOAA's National Weather Service
Alaska Aviation Weather Unit
6930 Sand Lake Road
Anchorage, AK 99502-1845
Disclaimer
Credits
Glossary
Privacy Policy
About Us
Career Opportunities
Contact AAWU Internet Services Site last modified: April, 17th 2012